createdAt,value
2018-08-27T00:00:21.053Z,59.58
2018-08-27T00:02:50.538Z,59.02
2018-08-27T00:05:19.972Z,59.53
2018-08-27T00:07:49.392Z,58.95
2018-08-27T00:10:18.812Z,58.90
2018-08-27T00:12:48.316Z,59.99
2018-08-27T00:15:17.753Z,60.03
2018-08-27T00:17:47.220Z,59.60
2018-08-27T00:20:16.833Z,60.34
2018-08-27T00:22:46.646Z,59.03
2018-08-27T00:25:16.157Z,59.68
2018-08-27T00:27:45.652Z,59.95
2018-08-27T00:30:15.037Z,59.27
2018-08-27T00:32:44.653Z,58.69
2018-08-27T00:35:14.040Z,59.84
2018-08-27T00:37:43.437Z,58.50
2018-08-27T00:40:12.799Z,58.54
2018-08-27T00:42:42.234Z,58.22
2018-08-27T00:45:11.593Z,57.26
2018-08-27T00:47:41.103Z,57.54
2018-08-27T00:50:10.468Z,57.07
2018-08-27T00:52:39.939Z,57.01
2018-08-27T00:55:09.337Z,57.07
2018-08-27T00:57:38.792Z,57.37
2018-08-27T01:00:08.497Z,56.03
2018-08-27T01:02:37.997Z,55.99
2018-08-27T01:05:07.457Z,55.53
2018-08-27T01:07:36.900Z,55.56
2018-08-27T01:10:06.305Z,55.04
2018-08-27T01:12:35.818Z,55.25
2018-08-27T01:15:05.514Z,54.94
2018-08-27T01:17:35.024Z,55.10
2018-08-27T01:20:04.529Z,54.44
2018-08-27T01:22:34.075Z,54.04
2018-08-27T01:25:03.430Z,54.51
2018-08-27T01:27:32.945Z,54.36
2018-08-27T01:30:02.333Z,54.54
2018-08-27T01:32:31.845Z,53.99
2018-08-27T01:35:01.256Z,53.95
2018-08-27T01:37:30.747Z,53.81
2018-08-27T01:40:00.140Z,53.63
2018-08-27T01:42:29.549Z,53.33
2018-08-27T01:44:58.944Z,52.85
2018-08-27T01:47:28.361Z,51.01
2018-08-27T01:49:57.773Z,51.40
2018-08-27T01:52:27.272Z,50.72
2018-08-27T01:54:56.628Z,51.19
2018-08-27T01:57:25.991Z,50.50
2018-08-27T01:59:55.361Z,50.25
2018-08-27T02:02:24.772Z,50.52
2018-08-27T02:04:54.169Z,49.72
2018-08-27T02:07:23.555Z,50.16
2018-08-27T02:09:52.959Z,49.70
2018-08-27T02:12:22.351Z,49.61
2018-08-27T02:14:51.721Z,50.31
2018-08-27T02:17:21.168Z,50.04
2018-08-27T02:19:50.534Z,49.82
2018-08-27T02:22:19.958Z,49.95
2018-08-27T02:24:49.327Z,50.03
2018-08-27T02:27:18.760Z,49.41
2018-08-27T02:29:48.157Z,49.54
2018-08-27T02:32:17.606Z,49.95
2018-08-27T02:34:46.952Z,49.74
2018-08-27T02:37:16.491Z,50.64
2018-08-27T02:39:45.877Z,50.93
2018-08-27T02:42:15.246Z,50.77
2018-08-27T02:44:44.588Z,50.88
2018-08-27T02:47:13.969Z,50.88
2018-08-27T02:49:43.325Z,50.91
2018-08-27T02:52:12.809Z,51.10
2018-08-27T02:54:42.169Z,50.46
2018-08-27T02:57:11.593Z,51.04
2018-08-27T02:59:40.966Z,50.89
2018-08-27T03:02:10.426Z,51.16
2018-08-27T03:04:39.801Z,51.40
2018-08-27T03:07:09.211Z,51.73
2018-08-27T03:09:38.573Z,51.32
2018-08-27T03:12:08.341Z,51.34
2018-08-27T03:14:37.696Z,50.84
2018-08-27T03:17:07.176Z,50.77
2018-08-27T03:19:36.541Z,50.77
2018-08-27T03:22:05.928Z,50.86
2018-08-27T03:24:35.304Z,50.63
2018-08-27T03:27:04.738Z,50.36
2018-08-27T03:29:34.113Z,50.54
2018-08-27T03:32:03.548Z,49.95
2018-08-27T03:34:32.921Z,49.88
2018-08-27T03:37:02.347Z,49.91
2018-08-27T03:39:31.718Z,50.11
2018-08-27T03:42:01.137Z,49.55
2018-08-27T03:44:30.521Z,49.70
2018-08-27T03:46:59.962Z,49.38
2018-08-27T03:49:29.365Z,49.30
2018-08-27T03:51:58.752Z,49.37
2018-08-27T03:54:28.410Z,49.22
2018-08-27T03:56:57.873Z,49.08
2018-08-27T03:59:27.284Z,49.23
2018-08-27T04:01:56.672Z,49.29
2018-08-27T04:04:26.049Z,49.08
2018-08-27T04:06:55.471Z,48.89
2018-08-27T04:09:24.858Z,49.02
2018-08-27T04:11:54.274Z,49.30
2018-08-27T04:14:23.690Z,49.27
2018-08-27T04:16:53.080Z,49.74
2018-08-27T04:19:22.444Z,49.37
2018-08-27T04:21:51.885Z,49.25
2018-08-27T04:24:21.281Z,49.69
2018-08-27T04:26:50.684Z,49.99
2018-08-27T04:29:20.065Z,49.95
2018-08-27T04:31:49.515Z,50.38
2018-08-27T04:34:18.885Z,50.21
2018-08-27T04:36:48.304Z,50.77
2018-08-27T04:39:17.658Z,50.51
2018-08-27T04:41:47.028Z,50.27
2018-08-27T04:44:16.415Z,50.22
2018-08-27T04:46:45.819Z,50.21
2018-08-27T04:49:15.180Z,49.70
2018-08-27T04:51:44.617Z,49.70
2018-08-27T04:54:14.044Z,49.52
2018-08-27T04:56:43.446Z,49.49
2018-08-27T04:59:18.595Z,49.43
2018-08-27T05:01:48.017Z,49.89
2018-08-27T05:04:17.621Z,49.16
2018-08-27T05:06:46.981Z,49.19
2018-08-27T05:09:16.383Z,48.55
2018-08-27T05:11:45.752Z,48.92
2018-08-27T05:14:15.190Z,48.71
2018-08-27T05:16:44.554Z,48.91
2018-08-27T05:19:14.091Z,48.22
2018-08-27T05:21:43.353Z,48.33
2018-08-27T05:24:12.812Z,47.81
2018-08-27T05:26:42.182Z,48.21
2018-08-27T05:29:11.550Z,48.08
2018-08-27T05:31:40.936Z,47.72
2018-08-27T05:34:10.393Z,47.59
2018-08-27T05:36:39.772Z,47.93
2018-08-27T05:39:10.376Z,47.52
2018-08-27T05:41:39.713Z,47.91
2018-08-27T05:44:09.183Z,47.55
2018-08-27T05:46:38.534Z,47.55
2018-08-27T05:49:07.924Z,47.27
2018-08-27T05:51:37.301Z,47.72
2018-08-27T05:54:06.734Z,47.41
2018-08-27T05:56:36.090Z,47.25
2018-08-27T05:59:05.557Z,47.48
2018-08-27T06:01:34.989Z,47.43
2018-08-27T06:04:04.336Z,46.50
2018-08-27T06:06:33.700Z,46.78
2018-08-27T06:09:03.234Z,46.34
2018-08-27T06:11:32.581Z,46.07
2018-08-27T06:14:01.975Z,46.29
2018-08-27T06:16:31.393Z,46.08
2018-08-27T06:19:00.749Z,46.04
2018-08-27T06:21:30.184Z,45.81
2018-08-27T06:23:59.922Z,46.18
2018-08-27T06:26:29.281Z,45.91
2018-08-27T06:28:58.685Z,45.42
2018-08-27T06:31:28.040Z,45.99
2018-08-27T06:33:57.496Z,45.86
2018-08-27T06:36:26.898Z,45.47
2018-08-27T06:38:56.302Z,44.88
2018-08-27T06:41:25.685Z,45.39
2018-08-27T06:43:55.081Z,44.94
2018-08-27T06:46:24.457Z,45.25
2018-08-27T06:48:54.035Z,44.67
2018-08-27T06:51:23.777Z,44.72
2018-08-27T06:53:53.162Z,44.49
2018-08-27T06:56:22.530Z,44.19
2018-08-27T06:58:51.932Z,44.58
2018-08-27T07:01:21.304Z,44.95
2018-08-27T07:03:50.876Z,44.38
2018-08-27T07:06:20.255Z,44.16
2018-08-27T07:08:49.677Z,44.63
2018-08-27T07:11:19.044Z,44.92
2018-08-27T07:13:48.456Z,44.71
2018-08-27T07:16:17.837Z,44.23
2018-08-27T07:18:47.297Z,43.89
2018-08-27T07:21:16.681Z,44.42
2018-08-27T07:23:46.152Z,44.18
2018-08-27T07:26:15.548Z,44.29
2018-08-27T07:28:44.968Z,43.85
2018-08-27T07:31:14.357Z,43.89
2018-08-27T07:33:43.778Z,44.13
2018-08-27T07:36:13.271Z,43.68
2018-08-27T07:38:42.678Z,42.69
2018-08-27T07:41:12.101Z,42.31
2018-08-27T07:43:41.587Z,42.11
2018-08-27T07:46:10.969Z,42.03
2018-08-27T07:48:40.385Z,42.13
2018-08-27T07:51:09.827Z,41.87
2018-08-27T07:53:39.337Z,41.40
2018-08-27T07:56:08.699Z,41.82
2018-08-27T07:58:38.176Z,41.11
2018-08-27T08:01:07.602Z,41.63
2018-08-27T08:03:37.017Z,41.52
2018-08-27T08:06:06.430Z,41.95
2018-08-27T08:08:35.819Z,40.98
2018-08-27T08:11:05.181Z,41.13
2018-08-27T08:13:34.631Z,41.41
2018-08-27T08:16:03.993Z,40.85
2018-08-27T08:18:33.457Z,40.68
2018-08-27T08:21:02.842Z,40.67
2018-08-27T08:23:32.230Z,40.42
2018-08-27T08:26:01.578Z,39.94
2018-08-27T08:28:31.028Z,40.32
2018-08-27T08:31:00.380Z,40.30
2018-08-27T08:33:29.849Z,40.31
2018-08-27T08:35:59.283Z,40.50
2018-08-27T08:38:28.762Z,40.14
2018-08-27T08:40:58.124Z,41.35
2018-08-27T08:43:27.569Z,41.23
2018-08-27T08:45:56.922Z,42.55
2018-08-27T08:48:26.347Z,42.37
2018-08-27T08:50:55.753Z,43.28
2018-08-27T08:53:25.172Z,45.48
2018-08-27T08:55:54.555Z,44.55
2018-08-27T08:58:23.998Z,44.58
2018-08-27T09:00:53.366Z,45.95
2018-08-27T09:03:22.774Z,49.26
2018-08-27T09:05:52.218Z,52.47
2018-08-27T09:08:21.803Z,54.40
2018-08-27T09:10:51.061Z,55.40
2018-08-27T09:13:20.473Z,57.85
2018-08-27T09:15:49.849Z,57.95
2018-08-27T09:18:19.329Z,58.38
2018-08-27T09:20:48.713Z,60.75
2018-08-27T09:23:18.099Z,65.10
2018-08-27T09:25:47.467Z,68.79
2018-08-27T09:28:16.891Z,70.35
2018-08-27T09:30:46.257Z,72.96
2018-08-27T09:33:15.855Z,72.54
2018-08-27T09:35:45.101Z,72.16
2018-08-27T09:38:14.510Z,72.09
2018-08-27T09:40:43.893Z,72.03
2018-08-27T09:43:13.312Z,71.35
2018-08-27T09:45:42.790Z,70.36
2018-08-27T09:48:12.129Z,69.98
2018-08-27T09:50:41.521Z,70.88
2018-08-27T09:53:11.012Z,70.72
2018-08-27T09:55:40.532Z,69.63
2018-08-27T09:58:09.946Z,68.84
2018-08-27T10:00:44.689Z,68.59
2018-08-27T10:03:14.096Z,69.33
2018-08-27T10:05:43.597Z,68.57
2018-08-27T10:08:12.994Z,68.42
2018-08-27T10:10:42.545Z,68.00
2018-08-27T10:13:11.956Z,67.33
2018-08-27T10:15:41.421Z,67.00
2018-08-27T10:18:10.865Z,65.76
2018-08-27T10:20:40.318Z,64.85
2018-08-27T10:23:09.717Z,64.25
2018-08-27T10:25:39.284Z,63.84
2018-08-27T10:28:08.686Z,63.08
2018-08-27T10:30:38.138Z,63.09
2018-08-27T10:33:07.541Z,64.32
2018-08-27T10:35:37.057Z,67.59
2018-08-27T10:38:06.756Z,70.17
2018-08-27T10:40:36.161Z,71.80
2018-08-27T10:43:05.578Z,71.59
2018-08-27T10:45:35.064Z,73.75
2018-08-27T10:48:04.545Z,70.64
2018-08-27T10:50:33.981Z,70.48
2018-08-27T10:53:03.662Z,71.26
2018-08-27T10:55:33.079Z,69.67
2018-08-27T10:58:02.497Z,67.42
2018-08-27T11:00:31.901Z,64.82
2018-08-27T11:03:01.293Z,62.94
2018-08-27T11:05:30.792Z,62.44
2018-08-27T11:08:00.189Z,61.98
2018-08-27T11:10:29.727Z,59.46
2018-08-27T11:12:59.093Z,58.76
2018-08-27T11:15:28.502Z,56.43
2018-08-27T11:17:57.902Z,55.78
2018-08-27T11:20:27.580Z,55.82
2018-08-27T11:22:56.817Z,55.11
2018-08-27T11:25:26.325Z,54.66
2018-08-27T11:27:55.721Z,54.15
2018-08-27T11:30:25.252Z,52.85
2018-08-27T11:32:54.708Z,51.04
2018-08-27T11:35:24.156Z,51.60
2018-08-27T11:37:53.576Z,52.30
2018-08-27T11:40:23.022Z,52.99
2018-08-27T11:42:52.527Z,53.01
2018-08-27T11:45:21.941Z,52.86
2018-08-27T11:47:51.328Z,52.66
2018-08-27T11:50:20.877Z,51.03
2018-08-27T11:52:50.186Z,51.43
2018-08-27T11:55:19.658Z,51.75
2018-08-27T11:57:49.069Z,51.27
2018-08-27T12:00:23.758Z,52.00
2018-08-27T12:02:53.411Z,51.31
2018-08-27T12:05:23.174Z,52.19
2018-08-27T12:07:52.734Z,52.05
2018-08-27T12:10:22.226Z,51.83
2018-08-27T12:12:51.637Z,52.05
2018-08-27T12:15:21.193Z,51.65
2018-08-27T12:17:50.691Z,52.45
2018-08-27T12:20:20.165Z,50.72
2018-08-27T12:22:49.581Z,50.65
2018-08-27T12:25:19.048Z,51.20
2018-08-27T12:27:48.452Z,54.10
2018-08-27T12:30:17.959Z,54.72
2018-08-27T12:32:47.370Z,54.86
2018-08-27T12:35:16.777Z,53.22
2018-08-27T12:37:46.236Z,55.55
2018-08-27T12:40:15.678Z,55.90
2018-08-27T12:42:45.124Z,56.42
2018-08-27T12:45:14.581Z,56.85
2018-08-27T12:47:43.982Z,57.44
2018-08-27T12:50:13.492Z,58.85
2018-08-27T12:52:43.001Z,59.35
2018-08-27T12:55:12.373Z,59.87
2018-08-27T12:57:41.752Z,58.50
2018-08-27T13:00:17.673Z,57.58
2018-08-27T13:02:47.985Z,56.04
2018-08-27T13:05:17.471Z,58.87
2018-08-27T13:07:46.885Z,59.94
2018-08-27T13:10:16.214Z,58.60
2018-08-27T13:12:45.700Z,57.95
2018-08-27T13:15:15.024Z,57.08
2018-08-27T13:17:44.460Z,54.30
2018-08-27T13:20:13.865Z,53.31
2018-08-27T13:22:43.237Z,59.44
2018-08-27T13:25:12.630Z,58.25
2018-08-27T13:27:42.096Z,54.54
2018-08-27T13:30:11.573Z,53.54
2018-08-27T13:32:40.991Z,53.63
2018-08-27T13:35:10.369Z,52.13
2018-08-27T13:37:39.730Z,55.48
2018-08-27T13:40:09.256Z,53.71
2018-08-27T13:42:38.710Z,51.63
2018-08-27T13:45:08.082Z,50.62
2018-08-27T13:47:37.486Z,49.58
2018-08-27T13:50:07.007Z,52.21
2018-08-27T13:52:36.389Z,51.13
2018-08-27T13:55:05.781Z,53.08
2018-08-27T13:57:35.200Z,53.60
2018-08-27T14:00:04.685Z,53.04
2018-08-27T14:02:34.223Z,52.48
2018-08-27T14:05:03.917Z,51.83
2018-08-27T14:07:33.329Z,51.57
2018-08-27T14:10:02.709Z,50.96
2018-08-27T14:12:32.238Z,52.16
2018-08-27T14:15:01.642Z,50.41
2018-08-27T14:17:30.944Z,49.90
2018-08-27T14:20:00.465Z,49.76
2018-08-27T14:22:29.736Z,51.21
2018-08-27T14:24:59.146Z,49.73
2018-08-27T14:27:28.551Z,51.81
2018-08-27T14:29:57.937Z,53.11
2018-08-27T14:32:27.354Z,53.18
2018-08-27T14:34:56.788Z,53.67
2018-08-27T14:37:26.294Z,53.51
2018-08-27T14:39:55.788Z,52.66
2018-08-27T14:42:25.324Z,52.92
2018-08-27T14:44:54.694Z,52.22
2018-08-27T14:47:24.092Z,52.20
2018-08-27T14:49:53.457Z,53.72
2018-08-27T14:52:22.895Z,53.96
2018-08-27T14:54:52.270Z,54.02
2018-08-27T14:57:21.657Z,53.22
2018-08-27T14:59:51.030Z,49.68
2018-08-27T15:02:20.514Z,52.32
2018-08-27T15:04:49.881Z,52.45
2018-08-27T15:07:19.291Z,52.68
2018-08-27T15:09:48.670Z,54.71
2018-08-27T15:12:18.187Z,53.95
2018-08-27T15:14:47.854Z,56.38
2018-08-27T15:17:17.310Z,55.75
2018-08-27T15:19:46.681Z,55.28
2018-08-27T15:22:16.118Z,56.16
2018-08-27T15:24:45.473Z,56.39
2018-08-27T15:27:14.932Z,57.62
2018-08-27T15:29:44.310Z,57.84
2018-08-27T15:32:13.735Z,58.53
2018-08-27T15:34:43.153Z,57.36
2018-08-27T15:37:12.586Z,57.46
2018-08-27T15:39:41.926Z,58.08
2018-08-27T15:42:11.352Z,58.96
2018-08-27T15:44:40.819Z,59.60
2018-08-27T15:47:10.173Z,59.93
2018-08-27T15:49:39.546Z,59.71
2018-08-27T15:52:08.953Z,60.50
2018-08-27T15:54:38.355Z,59.79
2018-08-27T15:57:07.750Z,60.49
2018-08-27T15:59:37.141Z,61.11
2018-08-27T16:02:06.614Z,60.95
2018-08-27T16:04:36.018Z,60.70
2018-08-27T16:07:05.421Z,61.27
2018-08-27T16:09:34.791Z,62.53
2018-08-27T16:12:04.180Z,61.64
2018-08-27T16:14:33.544Z,62.20
2018-08-27T16:17:02.986Z,62.82
2018-08-27T16:19:32.397Z,61.45
2018-08-27T16:22:01.786Z,62.58
2018-08-27T16:24:31.137Z,61.40
2018-08-27T16:27:00.591Z,61.72
2018-08-27T16:29:29.987Z,62.26
2018-08-27T16:31:59.404Z,63.12
2018-08-27T16:34:30.471Z,63.52
2018-08-27T16:36:59.963Z,64.08
2018-08-27T16:39:29.407Z,64.80
2018-08-27T16:41:58.744Z,64.65
2018-08-27T16:44:28.113Z,64.44
2018-08-27T16:46:57.797Z,64.74
2018-08-27T16:49:27.173Z,65.74
2018-08-27T16:51:56.581Z,63.52
2018-08-27T16:54:26.117Z,62.62
2018-08-27T16:56:55.571Z,64.57
2018-08-27T16:59:24.931Z,65.17
2018-08-27T17:01:54.397Z,65.26
2018-08-27T17:04:23.821Z,65.40
2018-08-27T17:06:53.188Z,65.96
2018-08-27T17:09:22.601Z,65.55
2018-08-27T17:11:51.981Z,66.37
2018-08-27T17:14:21.530Z,67.15
2018-08-27T17:16:50.923Z,67.28
2018-08-27T17:19:20.501Z,67.14
2018-08-27T17:21:49.792Z,67.20
2018-08-27T17:24:19.203Z,67.59
2018-08-27T17:26:48.572Z,67.05
2018-08-27T17:29:17.996Z,67.35
2018-08-27T17:31:47.401Z,67.61
2018-08-27T17:34:16.948Z,68.44
2018-08-27T17:36:47.274Z,67.94
2018-08-27T17:39:16.776Z,68.15
2018-08-27T17:41:46.097Z,68.44
2018-08-27T17:44:15.737Z,68.84
2018-08-27T17:46:45.129Z,68.91
2018-08-27T17:49:14.566Z,69.22
2018-08-27T17:51:43.942Z,69.59
2018-08-27T17:54:13.437Z,69.51
2018-08-27T17:56:42.797Z,69.63
2018-08-27T17:59:12.273Z,70.17
2018-08-27T18:01:41.639Z,70.09
2018-08-27T18:04:11.079Z,70.68
2018-08-27T18:06:40.456Z,70.24
2018-08-27T18:09:09.890Z,70.58
2018-08-27T18:11:39.265Z,71.00
2018-08-27T18:14:08.696Z,71.23
2018-08-27T18:16:38.075Z,70.92
2018-08-27T18:19:07.482Z,71.54
2018-08-27T18:21:36.845Z,71.63
2018-08-27T18:24:06.385Z,71.70
2018-08-27T18:26:35.813Z,72.35
2018-08-27T18:29:05.206Z,72.17
2018-08-27T18:31:34.572Z,72.75
2018-08-27T18:34:04.027Z,72.51
2018-08-27T18:36:33.388Z,73.61
2018-08-27T18:39:02.793Z,73.73
2018-08-27T18:41:32.153Z,73.76
2018-08-27T18:44:01.557Z,74.03
2018-08-27T18:46:30.943Z,73.87
2018-08-27T18:49:00.313Z,73.95
2018-08-27T18:51:29.735Z,74.57
2018-08-27T18:53:59.136Z,74.69
2018-08-27T18:56:28.493Z,75.06
2018-08-27T18:58:57.932Z,74.78
2018-08-27T19:01:32.492Z,75.13
2018-08-27T19:04:01.919Z,75.04
2018-08-27T19:06:31.407Z,75.96
2018-08-27T19:09:00.764Z,76.25
2018-08-27T19:11:30.407Z,76.09
2018-08-27T19:13:59.681Z,76.25
2018-08-27T19:16:29.086Z,76.18
2018-08-27T19:18:58.460Z,76.71
2018-08-27T19:21:27.929Z,76.82
2018-08-27T19:23:57.333Z,76.30
2018-08-27T19:26:27.553Z,76.43
2018-08-27T19:28:56.979Z,76.42
2018-08-27T19:31:26.448Z,76.18
2018-08-27T19:33:55.810Z,76.23
2018-08-27T19:36:25.442Z,76.59
2018-08-27T19:38:54.736Z,76.50
2018-08-27T19:41:24.169Z,76.41
2018-08-27T19:43:53.601Z,76.77
2018-08-27T19:46:23.155Z,76.71
2018-08-27T19:48:52.437Z,77.38
2018-08-27T19:51:21.900Z,77.35
2018-08-27T19:53:51.365Z,77.56
2018-08-27T19:56:21.029Z,77.54
2018-08-27T19:58:50.456Z,77.71
2018-08-27T20:01:19.864Z,77.57
2018-08-27T20:03:49.277Z,77.71
2018-08-27T20:06:18.705Z,77.32
2018-08-27T20:08:48.157Z,77.59
2018-08-27T20:11:17.613Z,77.87
2018-08-27T20:13:47.037Z,78.16
2018-08-27T20:16:16.562Z,78.28
2018-08-27T20:18:45.913Z,78.07
2018-08-27T20:21:15.409Z,78.03
2018-08-27T20:23:45.025Z,78.51
2018-08-27T20:26:15.531Z,78.23
2018-08-27T20:28:44.908Z,78.34
2018-08-27T20:31:14.361Z,78.14
2018-08-27T20:33:43.751Z,78.05
2018-08-27T20:36:13.261Z,77.97
2018-08-27T20:38:42.662Z,77.97
2018-08-27T20:41:12.173Z,77.79
2018-08-27T20:43:41.642Z,77.73
2018-08-27T20:46:11.133Z,78.25
2018-08-27T20:48:40.541Z,78.09
2018-08-27T20:51:09.989Z,78.43
2018-08-27T20:53:39.482Z,78.63
2018-08-27T20:56:08.976Z,78.48
2018-08-27T20:58:38.341Z,79.21
2018-08-27T21:01:07.757Z,79.00
2018-08-27T21:03:37.174Z,79.59
2018-08-27T21:06:06.658Z,79.23
2018-08-27T21:08:36.027Z,79.56
2018-08-27T21:11:05.549Z,79.30
2018-08-27T21:13:34.961Z,79.52
2018-08-27T21:16:04.469Z,79.69
2018-08-27T21:18:33.865Z,79.55
2018-08-27T21:21:03.325Z,79.41
2018-08-27T21:23:32.692Z,79.54
2018-08-27T21:26:02.106Z,79.55
2018-08-27T21:28:31.489Z,79.92
2018-08-27T21:31:00.924Z,79.89
2018-08-27T21:33:30.349Z,80.40
2018-08-27T21:35:59.717Z,80.13
2018-08-27T21:38:29.158Z,80.41
2018-08-27T21:40:58.497Z,80.42
2018-08-27T21:43:27.936Z,80.57
2018-08-27T21:45:57.357Z,80.39
2018-08-27T21:48:26.868Z,81.09
2018-08-27T21:50:56.212Z,81.09
2018-08-27T21:53:25.656Z,81.29
2018-08-27T21:55:55.068Z,80.83
2018-08-27T21:58:24.554Z,81.57
2018-08-27T22:00:56.152Z,81.62
2018-08-27T22:03:31.149Z,81.84
2018-08-27T22:06:00.469Z,82.19
2018-08-27T22:08:29.881Z,81.72
2018-08-27T22:10:59.204Z,82.22
2018-08-27T22:13:28.565Z,81.70
2018-08-27T22:15:57.888Z,81.94
2018-08-27T22:18:27.272Z,82.50
2018-08-27T22:20:56.593Z,82.42
2018-08-27T22:23:25.997Z,82.74
2018-08-27T22:25:55.329Z,82.46
2018-08-27T22:28:24.681Z,82.83
2018-08-27T22:30:54.953Z,82.60
2018-08-27T22:33:24.264Z,83.22
2018-08-27T22:35:53.584Z,82.86
2018-08-27T22:38:22.921Z,83.19
2018-08-27T22:40:52.244Z,82.82
2018-08-27T22:43:21.617Z,83.19
2018-08-27T22:45:50.945Z,83.45
2018-08-27T22:48:20.333Z,82.90
2018-08-27T22:50:49.678Z,82.95
2018-08-27T22:53:19.018Z,83.55
2018-08-27T22:55:48.332Z,83.79
2018-08-27T22:58:17.712Z,83.67
2018-08-27T23:00:47.039Z,83.72
2018-08-27T23:03:21.784Z,83.94
2018-08-27T23:05:51.093Z,83.21
2018-08-27T23:08:20.461Z,83.73
2018-08-27T23:10:49.933Z,83.59
2018-08-27T23:13:19.369Z,83.44
2018-08-27T23:15:48.696Z,83.65
2018-08-27T23:18:18.064Z,84.00
2018-08-27T23:20:47.375Z,84.11
2018-08-27T23:23:16.785Z,84.15
2018-08-27T23:25:46.113Z,83.63
2018-08-27T23:28:15.464Z,83.84
2018-08-27T23:30:44.766Z,83.14
2018-08-27T23:33:14.169Z,83.58
2018-08-27T23:35:43.533Z,83.26
2018-08-27T23:38:12.921Z,82.98
2018-08-27T23:40:42.285Z,82.76
2018-08-27T23:43:11.739Z,82.73
2018-08-27T23:45:41.154Z,83.03
2018-08-27T23:48:10.546Z,82.64
2018-08-27T23:50:39.917Z,82.52
2018-08-27T23:53:09.589Z,82.85
2018-08-27T23:55:38.993Z,83.23
2018-08-27T23:58:08.503Z,82.81
